sensor_id;sensor_type;location;lat;lon;timestamp;pressure;altitude;pressure_sealevel;temperature;humidity
73566;BME280;61846;52.970;-3.168;2024-01-30T00:00:47;100862.97;;;8.80;65.58
73566;BME280;61846;52.970;-3.168;2024-01-30T00:03:12;100869.15;;;9.06;64.00
73566;BME280;61846;52.970;-3.168;2024-01-30T00:05:38;100869.89;;;8.15;67.81
73566;BME280;61846;52.970;-3.168;2024-01-30T00:08:04;100876.36;;;8.62;66.88
73566;BME280;61846;52.970;-3.168;2024-01-30T00:10:29;100882.91;;;7.92;68.43
73566;BME280;61846;52.970;-3.168;2024-01-30T00:12:55;100889.25;;;8.54;66.80
73566;BME280;61846;52.970;-3.168;2024-01-30T00:15:20;100891.31;;;7.81;69.48
73566;BME280;61846;52.970;-3.168;2024-01-30T00:17:46;100893.09;;;8.32;68.04
73566;BME280;61846;52.970;-3.168;2024-01-30T00:20:11;100892.18;;;8.50;66.96
73566;BME280;61846;52.970;-3.168;2024-01-30T00:22:37;100895.59;;;8.41;67.56
73566;BME280;61846;52.970;-3.168;2024-01-30T00:25:03;100895.61;;;8.99;66.27
73566;BME280;61846;52.970;-3.168;2024-01-30T00:27:28;100898.34;;;9.10;65.25
73566;BME280;61846;52.970;-3.168;2024-01-30T00:29:54;100897.24;;;9.65;63.05
73566;BME280;61846;52.970;-3.168;2024-01-30T00:32:19;100896.03;;;8.87;64.42
73566;BME280;61846;52.970;-3.168;2024-01-30T00:34:45;100896.68;;;9.74;62.53
73566;BME280;61846;52.970;-3.168;2024-01-30T00:37:11;100894.70;;;9.72;62.05
73566;BME280;61846;52.970;-3.168;2024-01-30T00:39:36;100892.35;;;9.50;62.70
73566;BME280;61846;52.970;-3.168;2024-01-30T00:42:02;100894.67;;;9.38;62.60
73566;BME280;61846;52.970;-3.168;2024-01-30T00:44:27;100896.93;;;9.65;62.03
73566;BME280;61846;52.970;-3.168;2024-01-30T00:46:53;100902.15;;;9.73;63.45
73566;BME280;61846;52.970;-3.168;2024-01-30T00:49:19;100900.88;;;9.70;62.70
73566;BME280;61846;52.970;-3.168;2024-01-30T00:51:44;100910.52;;;7.65;66.73
73566;BME280;61846;52.970;-3.168;2024-01-30T00:54:10;100907.06;;;8.79;64.82
73566;BME280;61846;52.970;-3.168;2024-01-30T00:56:35;100906.94;;;9.61;62.96
73566;BME280;61846;52.970;-3.168;2024-01-30T00:59:01;100905.30;;;9.64;63.67
73566;BME280;61846;52.970;-3.168;2024-01-30T01:01:27;100908.13;;;9.20;63.30
73566;BME280;61846;52.970;-3.168;2024-01-30T01:03:52;100907.09;;;9.48;62.16
73566;BME280;61846;52.970;-3.168;2024-01-30T01:06:18;100905.04;;;8.77;64.85
73566;BME280;61846;52.970;-3.168;2024-01-30T01:08:43;100906.38;;;8.04;67.21
73566;BME280;61846;52.970;-3.168;2024-01-30T01:11:09;100916.01;;;7.18;69.20
73566;BME280;61846;52.970;-3.168;2024-01-30T01:13:35;100913.55;;;6.85;70.80
73566;BME280;61846;52.970;-3.168;2024-01-30T01:16:00;100917.75;;;6.50;72.56
73566;BME280;61846;52.970;-3.168;2024-01-30T01:18:26;100921.78;;;6.68;72.15
73566;BME280;61846;52.970;-3.168;2024-01-30T01:20:51;100929.65;;;6.35;73.66
73566;BME280;61846;52.970;-3.168;2024-01-30T01:23:17;100927.43;;;6.72;72.90
73566;BME280;61846;52.970;-3.168;2024-01-30T01:25:43;100930.91;;;5.45;75.32
73566;BME280;61846;52.970;-3.168;2024-01-30T01:28:09;100925.11;;;5.36;76.02
73566;BME280;61846;52.970;-3.168;2024-01-30T01:30:34;100927.81;;;5.26;77.54
73566;BME280;61846;52.970;-3.168;2024-01-30T01:33:00;100926.77;;;5.08;77.92
73566;BME280;61846;52.970;-3.168;2024-01-30T01:35:26;100925.59;;;5.06;77.81
73566;BME280;61846;52.970;-3.168;2024-01-30T01:37:51;100940.30;;;5.24;76.97
73566;BME280;61846;52.970;-3.168;2024-01-30T01:40:17;100939.29;;;5.13;77.65
73566;BME280;61846;52.970;-3.168;2024-01-30T01:42:42;100945.46;;;5.30;77.40
73566;BME280;61846;52.970;-3.168;2024-01-30T01:45:09;100953.15;;;5.95;76.04
73566;BME280;61846;52.970;-3.168;2024-01-30T01:47:34;100950.19;;;6.01;75.17
73566;BME280;61846;52.970;-3.168;2024-01-30T01:49:59;100950.84;;;5.74;75.35
73566;BME280;61846;52.970;-3.168;2024-01-30T01:52:25;100961.69;;;6.01;75.28
73566;BME280;61846;52.970;-3.168;2024-01-30T01:54:51;100965.89;;;6.03;74.21
73566;BME280;61846;52.970;-3.168;2024-01-30T01:57:16;100972.70;;;6.08;73.96
73566;BME280;61846;52.970;-3.168;2024-01-30T01:59:42;100974.30;;;5.64;74.42
73566;BME280;61846;52.970;-3.168;2024-01-30T02:02:09;100974.36;;;5.73;73.97
73566;BME280;61846;52.970;-3.168;2024-01-30T02:04:33;100976.32;;;6.06;73.32
73566;BME280;61846;52.970;-3.168;2024-01-30T02:06:59;100983.90;;;6.45;72.37
73566;BME280;61846;52.970;-3.168;2024-01-30T02:09:25;100981.77;;;6.37;71.47
73566;BME280;61846;52.970;-3.168;2024-01-30T02:11:50;100987.57;;;6.73;68.83
73566;BME280;61846;52.970;-3.168;2024-01-30T02:14:16;100989.61;;;6.27;70.80
73566;BME280;61846;52.970;-3.168;2024-01-30T02:16:42;101000.87;;;5.17;73.29
73566;BME280;61846;52.970;-3.168;2024-01-30T02:19:09;101004.25;;;6.36;71.38
73566;BME280;61846;52.970;-3.168;2024-01-30T02:21:33;100997.30;;;5.79;72.61
73566;BME280;61846;52.970;-3.168;2024-01-30T02:24:00;100999.38;;;5.45;74.33
73566;BME280;61846;52.970;-3.168;2024-01-30T02:26:24;100998.69;;;4.98;72.75
73566;BME280;61846;52.970;-3.168;2024-01-30T02:28:50;101001.95;;;5.77;71.29
73566;BME280;61846;52.970;-3.168;2024-01-30T02:31:16;101009.77;;;5.38;72.83
73566;BME280;61846;52.970;-3.168;2024-01-30T02:33:41;101010.99;;;5.86;72.60
73566;BME280;61846;52.970;-3.168;2024-01-30T02:36:07;101013.73;;;6.06;72.23
73566;BME280;61846;52.970;-3.168;2024-01-30T02:38:33;101027.11;;;5.35;72.24
73566;BME280;61846;52.970;-3.168;2024-01-30T02:40:58;101029.90;;;5.99;70.89
73566;BME280;61846;52.970;-3.168;2024-01-30T02:43:24;101038.58;;;6.49;68.91
73566;BME280;61846;52.970;-3.168;2024-01-30T02:45:50;101034.44;;;5.91;70.62
73566;BME280;61846;52.970;-3.168;2024-01-30T02:48:15;101038.50;;;5.83;70.34
73566;BME280;61846;52.970;-3.168;2024-01-30T02:50:41;101039.43;;;6.08;69.03
73566;BME280;61846;52.970;-3.168;2024-01-30T02:53:07;101039.45;;;5.54;69.23
73566;BME280;61846;52.970;-3.168;2024-01-30T02:55:34;101039.61;;;6.34;66.86
73566;BME280;61846;52.970;-3.168;2024-01-30T02:57:58;101033.68;;;6.94;65.84
73566;BME280;61846;52.970;-3.168;2024-01-30T03:00:24;101038.33;;;6.18;66.75
73566;BME280;61846;52.970;-3.168;2024-01-30T03:02:49;101037.07;;;6.00;67.89
73566;BME280;61846;52.970;-3.168;2024-01-30T03:05:15;101031.70;;;5.77;68.73
73566;BME280;61846;52.970;-3.168;2024-01-30T03:07:41;101033.93;;;6.03;68.97
73566;BME280;61846;52.970;-3.168;2024-01-30T03:10:07;101039.62;;;5.68;70.71
73566;BME280;61846;52.970;-3.168;2024-01-30T03:12:32;101043.29;;;5.72;69.55
73566;BME280;61846;52.970;-3.168;2024-01-30T03:14:58;101041.92;;;5.81;69.64
73566;BME280;61846;52.970;-3.168;2024-01-30T03:17:23;101042.88;;;5.77;69.16
73566;BME280;61846;52.970;-3.168;2024-01-30T03:19:49;101045.44;;;5.74;69.49
73566;BME280;61846;52.970;-3.168;2024-01-30T03:22:15;101047.95;;;5.42;70.90
73566;BME280;61846;52.970;-3.168;2024-01-30T03:24:40;101049.43;;;5.17;71.47
73566;BME280;61846;52.970;-3.168;2024-01-30T03:27:06;101045.87;;;5.57;70.28
73566;BME280;61846;52.970;-3.168;2024-01-30T03:29:32;101055.05;;;5.04;71.59
73566;BME280;61846;52.970;-3.168;2024-01-30T03:31:57;101053.15;;;5.29;71.22
73566;BME280;61846;52.970;-3.168;2024-01-30T03:34:23;101058.37;;;5.62;69.63
73566;BME280;61846;52.970;-3.168;2024-01-30T03:36:49;101056.35;;;5.09;72.24
73566;BME280;61846;52.970;-3.168;2024-01-30T03:39:14;101065.28;;;4.55;73.73
73566;BME280;61846;52.970;-3.168;2024-01-30T03:41:42;101083.46;;;4.08;74.29
73566;BME280;61846;52.970;-3.168;2024-01-30T03:44:06;101080.85;;;4.89;73.43
73566;BME280;61846;52.970;-3.168;2024-01-30T03:46:31;101089.94;;;4.90;73.33
73566;BME280;61846;52.970;-3.168;2024-01-30T03:48:57;101102.41;;;5.46;71.44
73566;BME280;61846;52.970;-3.168;2024-01-30T03:51:23;101103.48;;;5.24;71.89
73566;BME280;61846;52.970;-3.168;2024-01-30T03:53:48;101108.98;;;4.67;73.54
73566;BME280;61846;52.970;-3.168;2024-01-30T03:56:16;101110.02;;;5.22;73.73
73566;BME280;61846;52.970;-3.168;2024-01-30T03:58:40;101105.27;;;5.80;71.14
73566;BME280;61846;52.970;-3.168;2024-01-30T04:01:05;101115.25;;;4.87;72.76
73566;BME280;61846;52.970;-3.168;2024-01-30T04:03:31;101113.97;;;5.40;72.42
73566;BME280;61846;52.970;-3.168;2024-01-30T04:05:57;101121.05;;;5.02;73.17
73566;BME280;61846;52.970;-3.168;2024-01-30T04:08:25;101122.92;;;5.26;72.62
73566;BME280;61846;52.970;-3.168;2024-01-30T04:10:48;101124.45;;;4.97;72.95
73566;BME280;61846;52.970;-3.168;2024-01-30T04:13:14;101130.76;;;5.07;73.29
73566;BME280;61846;52.970;-3.168;2024-01-30T04:15:39;101122.14;;;4.63;73.92
73566;BME280;61846;52.970;-3.168;2024-01-30T04:18:05;101136.12;;;4.44;75.33
73566;BME280;61846;52.970;-3.168;2024-01-30T04:20:31;101141.13;;;4.54;74.33
73566;BME280;61846;52.970;-3.168;2024-01-30T04:22:56;101141.96;;;4.67;74.92
73566;BME280;61846;52.970;-3.168;2024-01-30T04:25:22;101140.18;;;3.85;76.79
73566;BME280;61846;52.970;-3.168;2024-01-30T04:27:48;101145.80;;;4.11;77.52
73566;BME280;61846;52.970;-3.168;2024-01-30T04:30:14;101139.19;;;4.38;75.58
73566;BME280;61846;52.970;-3.168;2024-01-30T04:32:39;101144.71;;;3.86;78.14
73566;BME280;61846;52.970;-3.168;2024-01-30T04:35:05;101153.86;;;3.66;79.11
73566;BME280;61846;52.970;-3.168;2024-01-30T04:37:31;101161.00;;;4.49;77.29
73566;BME280;61846;52.970;-3.168;2024-01-30T04:39:56;101168.49;;;4.50;77.42
73566;BME280;61846;52.970;-3.168;2024-01-30T04:42:22;101180.09;;;4.45;75.80
73566;BME280;61846;52.970;-3.168;2024-01-30T04:44:48;101182.33;;;4.89;75.89
73566;BME280;61846;52.970;-3.168;2024-01-30T04:47:13;101190.00;;;4.06;77.00
73566;BME280;61846;52.970;-3.168;2024-01-30T04:49:39;101182.90;;;3.93;78.05
73566;BME280;61846;52.970;-3.168;2024-01-30T04:52:05;101200.36;;;4.15;77.42
73566;BME280;61846;52.970;-3.168;2024-01-30T04:54:30;101209.15;;;4.56;75.98
73566;BME280;61846;52.970;-3.168;2024-01-30T04:56:56;101208.79;;;4.76;75.23
73566;BME280;61846;52.970;-3.168;2024-01-30T04:59:22;101221.84;;;4.45;75.56
73566;BME280;61846;52.970;-3.168;2024-01-30T05:01:48;101219.46;;;4.78;75.28
73566;BME280;61846;52.970;-3.168;2024-01-30T05:04:13;101219.65;;;4.61;74.50
73566;BME280;61846;52.970;-3.168;2024-01-30T05:06:39;101225.60;;;4.88;74.33
73566;BME280;61846;52.970;-3.168;2024-01-30T05:09:05;101235.22;;;5.03;72.81
73566;BME280;61846;52.970;-3.168;2024-01-30T05:11:30;101241.73;;;4.54;73.63
73566;BME280;61846;52.970;-3.168;2024-01-30T05:13:56;101242.75;;;6.09;68.94
73566;BME280;61846;52.970;-3.168;2024-01-30T05:16:22;101258.17;;;5.99;68.18
73566;BME280;61846;52.970;-3.168;2024-01-30T05:18:47;101265.86;;;6.03;69.68
73566;BME280;61846;52.970;-3.168;2024-01-30T05:21:13;101271.85;;;4.96;71.81
73566;BME280;61846;52.970;-3.168;2024-01-30T05:23:39;101287.88;;;4.70;73.03
73566;BME280;61846;52.970;-3.168;2024-01-30T05:26:04;101291.74;;;4.86;72.45
73566;BME280;61846;52.970;-3.168;2024-01-30T05:28:30;101297.32;;;5.28;71.28
73566;BME280;61846;52.970;-3.168;2024-01-30T05:30:56;101295.95;;;4.43;73.33
73566;BME280;61846;52.970;-3.168;2024-01-30T05:33:21;101288.40;;;4.11;76.21
73566;BME280;61846;52.970;-3.168;2024-01-30T05:35:47;101303.17;;;4.43;76.64
73566;BME280;61846;52.970;-3.168;2024-01-30T05:38:13;101310.82;;;4.77;74.56
73566;BME280;61846;52.970;-3.168;2024-01-30T05:40:38;101309.83;;;4.99;73.85
73566;BME280;61846;52.970;-3.168;2024-01-30T05:43:04;101324.35;;;4.24;76.22
73566;BME280;61846;52.970;-3.168;2024-01-30T05:45:30;101322.72;;;4.77;74.71
73566;BME280;61846;52.970;-3.168;2024-01-30T05:47:55;101318.44;;;4.82;74.32
73566;BME280;61846;52.970;-3.168;2024-01-30T05:50:21;101329.80;;;4.98;71.95
73566;BME280;61846;52.970;-3.168;2024-01-30T05:52:46;101333.18;;;5.31;71.32
73566;BME280;61846;52.970;-3.168;2024-01-30T05:55:12;101340.86;;;5.43;70.16
73566;BME280;61846;52.970;-3.168;2024-01-30T05:57:38;101345.01;;;6.15;68.62
73566;BME280;61846;52.970;-3.168;2024-01-30T06:00:05;101352.98;;;5.76;69.25
73566;BME280;61846;52.970;-3.168;2024-01-30T06:02:29;101346.73;;;5.58;69.18
73566;BME280;61846;52.970;-3.168;2024-01-30T06:04:55;101344.36;;;5.35;70.46
73566;BME280;61846;52.970;-3.168;2024-01-30T06:07:21;101358.80;;;4.67;72.68
73566;BME280;61846;52.970;-3.168;2024-01-30T06:09:46;101361.32;;;5.03;71.44
73566;BME280;61846;52.970;-3.168;2024-01-30T06:12:12;101365.70;;;5.48;70.11
73566;BME280;61846;52.970;-3.168;2024-01-30T06:14:37;101370.38;;;5.81;68.95
73566;BME280;61846;52.970;-3.168;2024-01-30T06:17:03;101376.51;;;4.90;71.42
73566;BME280;61846;52.970;-3.168;2024-01-30T06:19:29;101387.58;;;5.87;69.78
73566;BME280;61846;52.970;-3.168;2024-01-30T06:21:58;101397.54;;;4.86;71.69
73566;BME280;61846;52.970;-3.168;2024-01-30T06:24:20;101398.21;;;4.38;72.78
73566;BME280;61846;52.970;-3.168;2024-01-30T06:26:46;101410.56;;;5.03;71.98
73566;BME280;61846;52.970;-3.168;2024-01-30T06:29:12;101412.33;;;4.91;71.09
73566;BME280;61846;52.970;-3.168;2024-01-30T06:31:40;101423.21;;;4.12;72.45
73566;BME280;61846;52.970;-3.168;2024-01-30T06:34:03;101420.17;;;4.70;71.82
73566;BME280;61846;52.970;-3.168;2024-01-30T06:36:29;101422.83;;;4.17;73.28
73566;BME280;61846;52.970;-3.168;2024-01-30T06:38:55;101433.33;;;4.45;73.59
73566;BME280;61846;52.970;-3.168;2024-01-30T06:41:20;101439.51;;;4.56;72.95
73566;BME280;61846;52.970;-3.168;2024-01-30T06:43:46;101444.90;;;4.68;72.26
73566;BME280;61846;52.970;-3.168;2024-01-30T06:46:11;101455.70;;;5.27;71.15
73566;BME280;61846;52.970;-3.168;2024-01-30T06:48:37;101455.68;;;4.36;73.52
73566;BME280;61846;52.970;-3.168;2024-01-30T06:51:03;101464.36;;;5.39;70.64
73566;BME280;61846;52.970;-3.168;2024-01-30T06:53:28;101472.35;;;5.15;71.18
73566;BME280;61846;52.970;-3.168;2024-01-30T06:55:54;101472.31;;;5.76;69.62
73566;BME280;61846;52.970;-3.168;2024-01-30T06:58:19;101480.81;;;5.82;69.31
73566;BME280;61846;52.970;-3.168;2024-01-30T07:00:45;101477.75;;;5.52;69.65
73566;BME280;61846;52.970;-3.168;2024-01-30T07:03:11;101480.89;;;5.04;70.22
73566;BME280;61846;52.970;-3.168;2024-01-30T07:05:36;101485.68;;;6.25;67.65
73566;BME280;61846;52.970;-3.168;2024-01-30T07:08:02;101485.80;;;6.15;67.03
73566;BME280;61846;52.970;-3.168;2024-01-30T07:10:28;101497.97;;;6.38;66.62
73566;BME280;61846;52.970;-3.168;2024-01-30T07:12:53;101496.77;;;5.64;68.07
73566;BME280;61846;52.970;-3.168;2024-01-30T07:15:19;101497.36;;;5.52;68.76
73566;BME280;61846;52.970;-3.168;2024-01-30T07:17:45;101506.93;;;5.50;69.90
73566;BME280;61846;52.970;-3.168;2024-01-30T07:20:11;101518.15;;;4.90;71.93
73566;BME280;61846;52.970;-3.168;2024-01-30T07:22:36;101520.70;;;6.38;66.93
73566;BME280;61846;52.970;-3.168;2024-01-30T07:25:02;101522.85;;;5.12;69.69
73566;BME280;61846;52.970;-3.168;2024-01-30T07:27:27;101527.95;;;5.46;69.12
73566;BME280;61846;52.970;-3.168;2024-01-30T07:29:53;101532.60;;;6.17;68.22
73566;BME280;61846;52.970;-3.168;2024-01-30T07:32:19;101538.77;;;5.63;67.79
73566;BME280;61846;52.970;-3.168;2024-01-30T07:34:44;101539.60;;;5.57;67.74
73566;BME280;61846;52.970;-3.168;2024-01-30T07:37:10;101549.32;;;5.57;67.93
73566;BME280;61846;52.970;-3.168;2024-01-30T07:39:36;101558.32;;;5.93;66.62
73566;BME280;61846;52.970;-3.168;2024-01-30T07:42:01;101562.15;;;6.18;67.52
73566;BME280;61846;52.970;-3.168;2024-01-30T07:44:27;101569.71;;;6.01;66.40
73566;BME280;61846;52.970;-3.168;2024-01-30T07:46:52;101582.00;;;5.28;69.76
73566;BME280;61846;52.970;-3.168;2024-01-30T07:49:18;101575.57;;;4.88;70.15
73566;BME280;61846;52.970;-3.168;2024-01-30T07:51:44;101579.33;;;5.67;67.90
73566;BME280;61846;52.970;-3.168;2024-01-30T07:54:10;101584.36;;;6.00;66.58
73566;BME280;61846;52.970;-3.168;2024-01-30T07:56:35;101583.11;;;6.06;66.05
73566;BME280;61846;52.970;-3.168;2024-01-30T07:59:01;101593.07;;;6.50;65.25
73566;BME280;61846;52.970;-3.168;2024-01-30T08:01:26;101597.58;;;6.76;65.68
73566;BME280;61846;52.970;-3.168;2024-01-30T08:03:52;101603.48;;;6.23;66.21
73566;BME280;61846;52.970;-3.168;2024-01-30T08:06:18;101621.76;;;5.47;68.48
73566;BME280;61846;52.970;-3.168;2024-01-30T08:08:43;101626.58;;;5.94;67.13
73566;BME280;61846;52.970;-3.168;2024-01-30T08:11:09;101635.80;;;5.99;66.34
73566;BME280;61846;52.970;-3.168;2024-01-30T08:13:34;101639.12;;;5.78;67.93
73566;BME280;61846;52.970;-3.168;2024-01-30T08:16:00;101640.10;;;6.03;66.66
73566;BME280;61846;52.970;-3.168;2024-01-30T08:18:26;101639.42;;;5.82;66.55
73566;BME280;61846;52.970;-3.168;2024-01-30T08:20:51;101643.29;;;6.31;65.71
73566;BME280;61846;52.970;-3.168;2024-01-30T08:23:17;101652.52;;;6.60;64.97
73566;BME280;61846;52.970;-3.168;2024-01-30T08:25:43;101653.53;;;5.90;67.23
73566;BME280;61846;52.970;-3.168;2024-01-30T08:28:09;101666.99;;;6.05;67.46
73566;BME280;61846;52.970;-3.168;2024-01-30T08:30:34;101674.51;;;6.54;65.08
73566;BME280;61846;52.970;-3.168;2024-01-30T08:33:00;101683.36;;;5.96;67.27
73566;BME280;61846;52.970;-3.168;2024-01-30T08:35:26;101694.18;;;5.83;68.15
73566;BME280;61846;52.970;-3.168;2024-01-30T08:37:51;101695.39;;;5.81;69.50
73566;BME280;61846;52.970;-3.168;2024-01-30T08:40:17;101697.12;;;6.38;65.17
73566;BME280;61846;52.970;-3.168;2024-01-30T08:42:42;101707.62;;;6.56;66.07
73566;BME280;61846;52.970;-3.168;2024-01-30T08:45:09;101713.03;;;5.93;67.24
73566;BME280;61846;52.970;-3.168;2024-01-30T08:47:34;101716.41;;;6.69;65.03
73566;BME280;61846;52.970;-3.168;2024-01-30T08:49:59;101718.36;;;7.31;62.95
73566;BME280;61846;52.970;-3.168;2024-01-30T08:52:25;101719.00;;;6.83;62.88
73566;BME280;61846;52.970;-3.168;2024-01-30T08:54:51;101724.71;;;6.81;62.11
73566;BME280;61846;52.970;-3.168;2024-01-30T08:57:16;101732.66;;;6.56;64.36
73566;BME280;61846;52.970;-3.168;2024-01-30T08:59:42;101738.54;;;7.31;62.02
73566;BME280;61846;52.970;-3.168;2024-01-30T09:02:08;101743.58;;;7.03;62.76
73566;BME280;61846;52.970;-3.168;2024-01-30T09:04:33;101748.15;;;7.02;61.81
73566;BME280;61846;52.970;-3.168;2024-01-30T09:06:59;101754.98;;;7.36;60.75
73566;BME280;61846;52.970;-3.168;2024-01-30T09:09:25;101759.13;;;7.42;61.32
73566;BME280;61846;52.970;-3.168;2024-01-30T09:11:50;101765.88;;;6.58;63.58
73566;BME280;61846;52.970;-3.168;2024-01-30T09:14:16;101766.99;;;6.22;64.87
73566;BME280;61846;52.970;-3.168;2024-01-30T09:16:42;101775.49;;;6.71;63.21
73566;BME280;61846;52.970;-3.168;2024-01-30T09:19:07;101777.89;;;6.79;63.33
73566;BME280;61846;52.970;-3.168;2024-01-30T09:21:33;101784.41;;;6.91;63.00
73566;BME280;61846;52.970;-3.168;2024-01-30T09:24:02;101788.80;;;7.13;62.68
73566;BME280;61846;52.970;-3.168;2024-01-30T09:26:24;101798.30;;;6.37;65.30
73566;BME280;61846;52.970;-3.168;2024-01-30T09:28:50;101806.02;;;5.67;66.45
73566;BME280;61846;52.970;-3.168;2024-01-30T09:31:16;101811.25;;;6.22;66.24
73566;BME280;61846;52.970;-3.168;2024-01-30T09:33:41;101817.04;;;6.29;66.03
73566;BME280;61846;52.970;-3.168;2024-01-30T09:36:08;101826.53;;;6.29;66.79
73566;BME280;61846;52.970;-3.168;2024-01-30T09:38:33;101835.21;;;5.87;67.51
73566;BME280;61846;52.970;-3.168;2024-01-30T09:41:03;101832.72;;;6.64;65.83
73566;BME280;61846;52.970;-3.168;2024-01-30T09:43:24;101834.69;;;6.97;64.16
73566;BME280;61846;52.970;-3.168;2024-01-30T09:45:50;101841.80;;;6.66;64.40
73566;BME280;61846;52.970;-3.168;2024-01-30T09:48:15;101843.76;;;7.85;62.21
73566;BME280;61846;52.970;-3.168;2024-01-30T09:50:41;101846.05;;;7.15;62.48
73566;BME280;61846;52.970;-3.168;2024-01-30T09:53:08;101851.29;;;7.10;62.69
73566;BME280;61846;52.970;-3.168;2024-01-30T09:55:33;101854.87;;;7.34;63.11
73566;BME280;61846;52.970;-3.168;2024-01-30T09:57:58;101861.46;;;7.38;61.82
73566;BME280;61846;52.970;-3.168;2024-01-30T10:00:24;101866.70;;;7.43;61.51
73566;BME280;61846;52.970;-3.168;2024-01-30T10:02:49;101879.23;;;8.26;59.29
73566;BME280;61846;52.970;-3.168;2024-01-30T10:05:18;101883.40;;;6.59;62.97
73566;BME280;61846;52.970;-3.168;2024-01-30T10:07:52;101882.98;;;7.09;62.01
73566;BME280;61846;52.970;-3.168;2024-01-30T10:10:06;101889.82;;;7.75;60.82
73566;BME280;61846;52.970;-3.168;2024-01-30T10:12:31;101897.83;;;7.44;60.58
73566;BME280;61846;52.970;-3.168;2024-01-30T10:14:57;101903.97;;;7.56;60.64
73566;BME280;61846;52.970;-3.168;2024-01-30T10:17:25;101903.02;;;7.31;61.17
73566;BME280;61846;52.970;-3.168;2024-01-30T10:19:48;101908.08;;;8.09;59.78
73566;BME280;61846;52.970;-3.168;2024-01-30T10:22:14;101913.36;;;7.35;61.73
73566;BME280;61846;52.970;-3.168;2024-01-30T10:24:40;101913.66;;;7.79;60.81
73566;BME280;61846;52.970;-3.168;2024-01-30T10:27:06;101918.94;;;8.13;60.50
73566;BME280;61846;52.970;-3.168;2024-01-30T10:29:31;101921.02;;;7.63;61.50
73566;BME280;61846;52.970;-3.168;2024-01-30T10:31:58;101926.13;;;7.88;61.02
73566;BME280;61846;52.970;-3.168;2024-01-30T10:34:24;101930.58;;;7.40;61.67
73566;BME280;61846;52.970;-3.168;2024-01-30T10:36:50;101931.32;;;7.34;61.21
73566;BME280;61846;52.970;-3.168;2024-01-30T10:39:16;101935.88;;;6.97;62.01
73566;BME280;61846;52.970;-3.168;2024-01-30T10:41:44;101934.46;;;8.13;60.37
73566;BME280;61846;52.970;-3.168;2024-01-30T10:44:09;101949.96;;;8.39;59.02
73566;BME280;61846;52.970;-3.168;2024-01-30T10:46:32;101954.93;;;7.88;60.05
73566;BME280;61846;52.970;-3.168;2024-01-30T10:48:58;101954.76;;;6.88;61.16
73566;BME280;61846;52.970;-3.168;2024-01-30T10:51:22;101964.54;;;7.32;61.13
73566;BME280;61846;52.970;-3.168;2024-01-30T10:53:49;101971.05;;;6.40;62.07
73566;BME280;61846;52.970;-3.168;2024-01-30T10:56:14;101965.08;;;6.21;60.67
73566;BME280;61846;52.970;-3.168;2024-01-30T10:58:39;101964.84;;;6.46;61.01
73566;BME280;61846;52.970;-3.168;2024-01-30T11:01:05;101963.00;;;6.72;59.34
73566;BME280;61846;52.970;-3.168;2024-01-30T11:03:31;101967.63;;;5.95;61.17
73566;BME280;61846;52.970;-3.168;2024-01-30T11:05:59;101984.44;;;5.79;61.38
73566;BME280;61846;52.970;-3.168;2024-01-30T11:08:25;101991.69;;;6.51;60.15
73566;BME280;61846;52.970;-3.168;2024-01-30T11:10:47;101994.56;;;7.24;58.22
73566;BME280;61846;52.970;-3.168;2024-01-30T11:13:13;101999.48;;;7.31;58.21
73566;BME280;61846;52.970;-3.168;2024-01-30T11:15:38;102001.99;;;7.78;56.60
73566;BME280;61846;52.970;-3.168;2024-01-30T11:18:04;102002.38;;;7.52;55.83
73566;BME280;61846;52.970;-3.168;2024-01-30T11:20:30;102017.45;;;6.71;59.83
73566;BME280;61846;52.970;-3.168;2024-01-30T11:22:56;102021.45;;;6.87;58.50
73566;BME280;61846;52.970;-3.168;2024-01-30T11:25:22;102025.65;;;6.88;58.80
73566;BME280;61846;52.970;-3.168;2024-01-30T11:27:50;102028.05;;;6.52;58.76
73566;BME280;61846;52.970;-3.168;2024-01-30T11:30:22;102025.45;;;6.85;59.02
73566;BME280;61846;52.970;-3.168;2024-01-30T11:32:38;102028.65;;;7.18;58.42
73566;BME280;61846;52.970;-3.168;2024-01-30T11:35:04;102031.23;;;7.00;57.98
73566;BME280;61846;52.970;-3.168;2024-01-30T11:37:30;102029.12;;;7.02;57.48
73566;BME280;61846;52.970;-3.168;2024-01-30T11:39:55;102037.70;;;6.67;59.41
73566;BME280;61846;52.970;-3.168;2024-01-30T11:42:24;102038.85;;;6.83;57.51
73566;BME280;61846;52.970;-3.168;2024-01-30T11:44:47;102036.42;;;7.21;56.99
73566;BME280;61846;52.970;-3.168;2024-01-30T11:47:12;102038.87;;;7.72;56.03
73566;BME280;61846;52.970;-3.168;2024-01-30T11:49:37;102041.20;;;7.29;57.65
73566;BME280;61846;52.970;-3.168;2024-01-30T11:52:04;102038.36;;;7.66;56.64
73566;BME280;61846;52.970;-3.168;2024-01-30T11:54:29;102037.26;;;6.91;58.34
73566;BME280;61846;52.970;-3.168;2024-01-30T11:56:54;102038.35;;;7.45;56.63
73566;BME280;61846;52.970;-3.168;2024-01-30T11:59:19;102032.03;;;7.74;55.15
73566;BME280;61846;52.970;-3.168;2024-01-30T12:01:45;102032.55;;;7.13;53.56
73566;BME280;61846;52.970;-3.168;2024-01-30T12:04:11;102029.25;;;7.20;54.12
73566;BME280;61846;52.970;-3.168;2024-01-30T12:06:36;102025.29;;;7.19;54.15
73566;BME280;61846;52.970;-3.168;2024-01-30T12:09:03;102031.14;;;6.92;53.62
73566;BME280;61846;52.970;-3.168;2024-01-30T12:11:28;102036.03;;;7.50;51.42
73566;BME280;61846;52.970;-3.168;2024-01-30T12:13:53;102035.53;;;7.87;50.55
73566;BME280;61846;52.970;-3.168;2024-01-30T12:16:19;102036.56;;;7.17;51.77
73566;BME280;61846;52.970;-3.168;2024-01-30T12:18:44;102039.82;;;7.64;50.04
73566;BME280;61846;52.970;-3.168;2024-01-30T12:21:10;102038.27;;;8.06;49.79
73566;BME280;61846;52.970;-3.168;2024-01-30T12:23:36;102044.69;;;8.10;49.45
73566;BME280;61846;52.970;-3.168;2024-01-30T12:26:02;102053.67;;;8.06;46.81
73566;BME280;61846;52.970;-3.168;2024-01-30T12:28:27;102054.21;;;7.07;48.18
73566;BME280;61846;52.970;-3.168;2024-01-30T12:30:56;102057.81;;;6.76;48.66
73566;BME280;61846;52.970;-3.168;2024-01-30T12:33:18;102055.17;;;6.35;49.75
73566;BME280;61846;52.970;-3.168;2024-01-30T12:35:46;102054.33;;;6.94;49.44
73566;BME280;61846;52.970;-3.168;2024-01-30T12:38:10;102052.85;;;6.63;48.17
73566;BME280;61846;52.970;-3.168;2024-01-30T12:40:35;102054.42;;;7.06;47.00